sensor_id;sensor_type;location;lat;lon;timestamp;pressure;altitude;pressure_sealevel;temperature;humidity
50650;BME280;36621;60.058;30.346;2023-03-03T01:20:52;99659.63;;;2.41;64.45
50650;BME280;36621;60.058;30.346;2023-03-03T01:39:24;99598.13;;;1.70;64.65
50650;BME280;36621;60.058;30.346;2023-03-03T04:02:03;99614.47;;;1.51;63.55
50650;BME280;36621;60.058;30.346;2023-03-03T04:09:36;99646.13;;;1.61;63.52
50650;BME280;36621;60.058;30.346;2023-03-03T04:17:15;99647.06;;;1.67;63.46
50650;BME280;36621;60.058;30.346;2023-03-03T04:24:47;99639.31;;;1.42;63.15
50650;BME280;36621;60.058;30.346;2023-03-03T04:32:21;99641.34;;;1.34;63.54
50650;BME280;36621;60.058;30.346;2023-03-03T04:39:53;99603.19;;;0.97;63.71
50650;BME280;36621;60.058;30.346;2023-03-03T16:11:13;99414.44;;;1.24;61.87
50650;BME280;36621;60.058;30.346;2023-03-03T16:19:12;99332.84;;;0.67;62.22
50650;BME280;36621;60.058;30.346;2023-03-03T16:26:58;99250.59;;;0.03;62.03
50650;BME280;36621;60.058;30.346;2023-03-03T16:34:44;99387.50;;;0.90;62.92
50650;BME280;36621;60.058;30.346;2023-03-03T16:42:25;99390.13;;;1.18;62.42
50650;BME280;36621;60.058;30.346;2023-03-03T16:50:13;99347.38;;;1.00;62.50
50650;BME280;36621;60.058;30.346;2023-03-03T16:58:01;99369.94;;;1.16;62.59
50650;BME280;36621;60.058;30.346;2023-03-03T17:06:10;99351.22;;;1.04;62.78
50650;BME280;36621;60.058;30.346;2023-03-03T17:14:22;99285.50;;;0.49;63.10
50650;BME280;36621;60.058;30.346;2023-03-03T17:22:13;99338.13;;;0.79;63.02
50650;BME280;36621;60.058;30.346;2023-03-03T17:30:05;99346.31;;;0.84;63.08
50650;BME280;36621;60.058;30.346;2023-03-03T17:38:09;99276.53;;;0.43;62.81
50650;BME280;36621;60.058;30.346;2023-03-03T17:46:00;99322.66;;;0.69;62.89
50650;BME280;36621;60.058;30.346;2023-03-03T18:01:40;99230.47;;;0.34;62.27
50650;BME280;36621;60.058;30.346;2023-03-03T18:09:51;99265.00;;;0.60;62.69
50650;BME280;36621;60.058;30.346;2023-03-03T18:17:42;99270.38;;;0.60;62.91
50650;BME280;36621;60.058;30.346;2023-03-03T18:25:22;99249.47;;;0.45;62.78
50650;BME280;36621;60.058;30.346;2023-03-03T18:33:07;99257.75;;;0.60;62.97
50650;BME280;36621;60.058;30.346;2023-03-03T18:40:52;99247.25;;;0.59;62.87
50650;BME280;36621;60.058;30.346;2023-03-03T18:48:52;99128.09;;;-0.03;62.59
50650;BME280;36621;60.058;30.346;2023-03-03T18:56:43;99147.66;;;0.09;62.73
50650;BME280;36621;60.058;30.346;2023-03-03T19:04:22;99201.34;;;0.43;62.77
50650;BME280;36621;60.058;30.346;2023-03-03T19:12:01;99100.44;;;-0.21;62.84
50650;BME280;36621;60.058;30.346;2023-03-03T19:19:59;99114.22;;;0.17;62.30
50650;BME280;36621;60.058;30.346;2023-03-03T19:27:37;99187.69;;;0.62;62.45
50650;BME280;36621;60.058;30.346;2023-03-03T19:35:24;99103.72;;;0.32;62.34
50650;BME280;36621;60.058;30.346;2023-03-03T19:43:07;99076.53;;;0.29;62.04
50650;BME280;36621;60.058;30.346;2023-03-03T19:50:52;99064.25;;;0.33;61.60
50650;BME280;36621;60.058;30.346;2023-03-03T19:58:38;99144.28;;;0.87;61.28
50650;BME280;36621;60.058;30.346;2023-03-03T20:06:24;99103.66;;;0.66;61.13
50650;BME280;36621;60.058;30.346;2023-03-03T20:14:11;99040.78;;;0.23;60.77
50650;BME280;36621;60.058;30.346;2023-03-03T20:22:04;99106.03;;;0.80;60.99
50650;BME280;36621;60.058;30.346;2023-03-03T20:29:55;99066.88;;;0.45;61.32
50650;BME280;36621;60.058;30.346;2023-03-03T20:37:40;99092.13;;;0.66;60.98
50650;BME280;36621;60.058;30.346;2023-03-03T20:45:30;99071.75;;;0.70;61.12
50650;BME280;36621;60.058;30.346;2023-03-03T20:53:17;99020.72;;;0.48;60.76
50650;BME280;36621;60.058;30.346;2023-03-03T21:00:55;99030.75;;;0.58;60.95
50650;BME280;36621;60.058;30.346;2023-03-03T21:08:48;98936.13;;;0.06;60.85
50650;BME280;36621;60.058;30.346;2023-03-03T21:16:30;98929.13;;;0.05;61.27
50650;BME280;36621;60.058;30.346;2023-03-03T21:24:05;99019.66;;;0.71;61.21
50650;BME280;36621;60.058;30.346;2023-03-03T21:31:45;98920.28;;;0.27;60.82
50650;BME280;36621;60.058;30.346;2023-03-03T21:39:39;98993.28;;;0.90;60.66
50650;BME280;36621;60.058;30.346;2023-03-03T21:47:13;98948.88;;;0.60;60.88
50650;BME280;36621;60.058;30.346;2023-03-03T21:54:48;98972.66;;;0.96;60.87
50650;BME280;36621;60.058;30.346;2023-03-03T22:02:21;98967.03;;;0.97;60.69
50650;BME280;36621;60.058;30.346;2023-03-03T22:09:54;98949.53;;;0.95;60.59
50650;BME280;36621;60.058;30.346;2023-03-03T22:17:26;98870.34;;;0.48;60.54
50650;BME280;36621;60.058;30.346;2023-03-03T22:24:59;98948.59;;;1.11;60.68
50650;BME280;36621;60.058;30.346;2023-03-03T22:32:31;98934.09;;;1.07;60.48
50650;BME280;36621;60.058;30.346;2023-03-03T22:40:05;98928.03;;;0.95;60.53
50650;BME280;36621;60.058;30.346;2023-03-03T22:47:37;98830.28;;;0.19;60.72
50650;BME280;36621;60.058;30.346;2023-03-03T22:55:11;98868.28;;;0.33;61.26
50650;BME280;36621;60.058;30.346;2023-03-03T23:02:43;98872.66;;;0.39;61.48
50650;BME280;36621;60.058;30.346;2023-03-03T23:10:16;98802.41;;;-0.02;61.58
50650;BME280;36621;60.058;30.346;2023-03-03T23:17:50;98879.44;;;0.47;61.37
50650;BME280;36621;60.058;30.346;2023-03-03T23:25:23;98807.25;;;0.01;61.73
50650;BME280;36621;60.058;30.346;2023-03-03T23:32:56;98842.63;;;0.20;61.40
50650;BME280;36621;60.058;30.346;2023-03-03T23:40:28;98856.84;;;0.43;61.43
50650;BME280;36621;60.058;30.346;2023-03-03T23:48:00;98840.56;;;0.27;61.64
50650;BME280;36621;60.058;30.346;2023-03-03T23:55:34;98714.84;;;-0.36;61.46
